createdAt,value
2022-09-01T00:03:28.277Z,98297.09
2022-09-01T00:08:32.189Z,98301.91
2022-09-01T00:13:35.206Z,98292.38
2022-09-01T00:18:37.438Z,98294.06
2022-09-01T00:23:39.896Z,98290.06
2022-09-01T00:28:41.850Z,98293.31
2022-09-01T00:33:43.663Z,98300.72
2022-09-01T00:38:45.508Z,98295.72
2022-09-01T00:43:50.858Z,98288.09
2022-09-01T00:49:09.173Z,98287.09
2022-09-01T00:54:15.248Z,98288.28
2022-09-01T00:59:19.747Z,98285.00
2022-09-01T01:04:22.791Z,98282.56
2022-09-01T01:09:27.071Z,98289.22
2022-09-01T01:14:32.845Z,98293.94
2022-09-01T01:19:56.223Z,98291.44
2022-09-01T01:24:58.784Z,98287.66
2022-09-01T01:30:06.585Z,98295.59
2022-09-01T01:35:14.970Z,98288.53
2022-09-01T01:40:22.199Z,98288.31
2022-09-01T01:45:25.228Z,98292.22
2022-09-01T01:50:35.878Z,98285.72
2022-09-01T01:55:39.273Z,98284.38
2022-09-01T02:00:44.713Z,98286.53
2022-09-01T02:05:49.016Z,98284.09
2022-09-01T02:10:55.554Z,98287.03
2022-09-01T02:16:07.734Z,98283.16
2022-09-01T02:21:17.658Z,98281.88
2022-09-01T02:26:23.784Z,98273.94
2022-09-01T02:31:28.058Z,98274.00
2022-09-01T02:36:37.831Z,98269.00
2022-09-01T02:41:41.351Z,98261.56
2022-09-01T02:46:44.875Z,98281.50
2022-09-01T02:51:52.246Z,98276.97
2022-09-01T02:56:54.851Z,98268.19
2022-09-01T03:01:58.721Z,98270.84
2022-09-01T03:07:02.035Z,98264.69
2022-09-01T03:12:04.543Z,98268.31
2022-09-01T03:17:06.450Z,98270.94
2022-09-01T03:22:10.276Z,98275.31
2022-09-01T03:27:13.542Z,98273.22
2022-09-01T03:32:15.737Z,98268.50
2022-09-01T03:37:19.068Z,98260.03
2022-09-01T03:42:22.952Z,98262.94
2022-09-01T03:47:25.303Z,98268.97
2022-09-01T03:52:30.086Z,98268.66
2022-09-01T03:57:34.363Z,98259.88
2022-09-01T04:02:36.246Z,98264.91
2022-09-01T04:07:38.643Z,98261.19
2022-09-01T04:12:40.496Z,98270.59
2022-09-01T04:18:00.769Z,98274.66
2022-09-01T04:23:10.986Z,98270.28
2022-09-01T04:28:23.040Z,98268.81
2022-09-01T04:33:34.921Z,98273.69
2022-09-01T04:38:37.462Z,98271.38
2022-09-01T04:43:40.161Z,98274.78
2022-09-01T04:48:46.003Z,98284.06
2022-09-01T04:53:50.724Z,98278.13
2022-09-01T04:58:56.826Z,98268.47
2022-09-01T05:04:03.969Z,98272.78
2022-09-01T05:09:13.092Z,98271.25
2022-09-01T05:14:48.628Z,98271.38
2022-09-01T05:19:54.439Z,98272.44
2022-09-01T05:24:56.322Z,98277.88
2022-09-01T05:30:00.318Z,98275.31
2022-09-01T05:35:02.361Z,98280.97
2022-09-01T05:40:16.535Z,98275.69
2022-09-01T05:45:20.541Z,98282.38
2022-09-01T05:50:22.877Z,98283.75
2022-09-01T05:55:27.776Z,98278.78
2022-09-01T06:00:34.831Z,98285.34
2022-09-01T06:05:38.140Z,98283.19
2022-09-01T06:10:45.306Z,98279.03
2022-09-01T06:15:50.964Z,98283.59
2022-09-01T06:20:53.408Z,98283.84
2022-09-01T06:25:55.502Z,98286.03
2022-09-01T06:30:58.597Z,98294.44
2022-09-01T06:36:03.984Z,98294.31
2022-09-01T06:41:13.064Z,98286.16
2022-09-01T06:46:20.206Z,98288.81
2022-09-01T06:51:23.365Z,98299.13
2022-09-01T06:56:31.953Z,98305.56
2022-09-01T07:01:35.477Z,98312.25
2022-09-01T07:12:25.792Z,98306.22
2022-09-01T07:17:30.759Z,98302.19
2022-09-01T07:22:39.243Z,98304.38
2022-09-01T07:27:56.320Z,98312.16
2022-09-01T07:43:53.288Z,98309.00
2022-09-01T07:54:27.576Z,98321.97
2022-09-01T07:59:33.439Z,98325.84
2022-09-01T08:04:55.804Z,98323.41
2022-09-01T08:10:01.282Z,98321.75
2022-09-01T08:15:41.134Z,98323.50
2022-09-01T08:20:30.681Z,98332.13
2022-09-01T08:25:50.700Z,98325.53
2022-09-01T08:30:53.000Z,98328.19
2022-09-01T08:35:58.358Z,98333.31
2022-09-01T08:41:03.383Z,98334.84
2022-09-01T08:46:23.481Z,98331.72
2022-09-01T08:51:37.527Z,98336.09
2022-09-01T08:56:41.096Z,98334.19
2022-09-01T09:02:12.127Z,98331.47
2022-09-01T09:07:20.142Z,98341.72
2022-09-01T09:12:48.628Z,98350.34
2022-09-01T09:18:04.629Z,98340.16
2022-09-01T09:23:36.413Z,98343.00
2022-09-01T09:28:40.196Z,98342.03
2022-09-01T09:33:51.840Z,98344.22
2022-09-01T09:39:20.977Z,98345.50
2022-09-01T09:44:29.987Z,98337.31
2022-09-01T09:49:36.416Z,98343.53
2022-09-01T09:54:42.725Z,98341.50
2022-09-01T09:59:59.114Z,98343.94
2022-09-01T10:05:24.960Z,98334.94
2022-09-01T10:10:44.261Z,98338.19
2022-09-01T10:15:51.668Z,98333.53
2022-09-01T10:21:00.759Z,98330.69
2022-09-01T10:26:19.398Z,98327.78
2022-09-01T10:31:22.166Z,98332.38
2022-09-01T10:36:24.778Z,98328.34
2022-09-01T10:42:07.554Z,98332.31
2022-09-01T10:47:33.524Z,98336.41
2022-09-01T10:52:43.447Z,98325.91
2022-09-01T11:03:57.571Z,98323.25
2022-09-01T11:09:19.434Z,98328.47
2022-09-01T11:14:29.387Z,98331.09
2022-09-01T11:20:10.716Z,98323.28
2022-09-01T11:25:40.907Z,98318.69
2022-09-01T11:31:35.715Z,98319.31
2022-09-01T11:36:48.653Z,98321.75
2022-09-01T11:41:57.464Z,98316.28
2022-09-01T11:47:18.420Z,98314.78
2022-09-01T11:52:23.303Z,98314.03
2022-09-01T11:57:32.271Z,98317.75
2022-09-01T12:02:42.546Z,98311.81
2022-09-01T12:07:47.519Z,98305.31
2022-09-01T12:12:49.498Z,98312.41
2022-09-01T12:17:52.835Z,98314.41
2022-09-01T12:22:55.615Z,98303.28
2022-09-01T12:28:01.030Z,98300.44
2022-09-01T12:33:23.353Z,98297.25
2022-09-01T12:38:29.040Z,98302.41
2022-09-01T12:43:36.961Z,98302.69
2022-09-01T12:48:41.796Z,98294.47
2022-09-01T12:53:52.833Z,98295.84
2022-09-01T12:59:15.488Z,98295.78
2022-09-01T13:04:22.577Z,98286.06
2022-09-01T13:09:24.744Z,98278.38
2022-09-01T13:14:26.572Z,98281.53
2022-09-01T13:19:30.601Z,98280.72
2022-09-01T13:24:32.748Z,98282.53
2022-09-01T13:29:34.622Z,98278.28
2022-09-01T13:34:36.524Z,98280.59
2022-09-01T13:39:38.359Z,98276.06
2022-09-01T13:44:40.304Z,98279.63
2022-09-01T13:49:44.514Z,98284.22
2022-09-01T13:55:05.652Z,98278.63
2022-09-01T14:00:11.678Z,98274.66
2022-09-01T14:05:13.593Z,98273.41
2022-09-01T14:10:16.561Z,98261.66
2022-09-01T14:15:25.128Z,98264.03
2022-09-01T14:20:36.993Z,98256.16
2022-09-01T14:25:46.210Z,98268.56
2022-09-01T14:35:51.468Z,98245.50
2022-09-01T14:40:53.453Z,98236.69
2022-09-01T14:46:10.283Z,98232.03
2022-09-01T14:51:20.552Z,98217.53
2022-09-01T14:56:23.584Z,98220.81
2022-09-01T15:01:34.624Z,98207.13
2022-09-01T15:06:36.828Z,98206.50
2022-09-01T15:11:43.977Z,98205.09
2022-09-01T15:16:47.554Z,98213.84
2022-09-01T15:21:49.483Z,98207.09
2022-09-01T15:26:51.477Z,98211.69
2022-09-01T15:31:54.077Z,98215.91
2022-09-01T15:36:55.901Z,98214.34
2022-09-01T15:41:57.788Z,98205.97
2022-09-01T15:46:59.703Z,98200.53
2022-09-01T15:52:01.755Z,98204.03
2022-09-01T15:57:04.323Z,98200.44
2022-09-01T16:02:07.605Z,98202.13
2022-09-01T16:07:09.557Z,98197.78
2022-09-01T16:12:11.274Z,98198.25
2022-09-01T16:17:34.280Z,98195.75
2022-09-01T16:22:42.559Z,98191.84
2022-09-01T16:27:45.849Z,98201.44
2022-09-01T16:32:48.845Z,98193.25
2022-09-01T16:38:22.511Z,98190.06
2022-09-01T16:43:32.691Z,98193.50
2022-09-01T16:48:47.226Z,98200.91
2022-09-01T16:53:56.374Z,98203.47
2022-09-01T16:59:34.464Z,98208.88
2022-09-01T17:04:47.434Z,98200.44
2022-09-01T17:10:08.717Z,98203.34
2022-09-01T17:15:18.182Z,98206.09
2022-09-01T17:20:24.049Z,98202.88
2022-09-01T17:25:33.055Z,98212.25
2022-09-01T17:30:44.900Z,98216.53
2022-09-01T17:35:59.799Z,98221.84
2022-09-01T17:41:45.263Z,98230.13
2022-09-01T17:47:13.711Z,98236.63
2022-09-01T17:52:47.373Z,98240.66
2022-09-01T17:58:27.843Z,98245.50
2022-09-01T18:03:49.221Z,98236.31
2022-09-01T18:08:55.471Z,98237.44
2022-09-01T18:14:00.130Z,98234.88
2022-09-01T18:19:24.469Z,98240.72
2022-09-01T18:24:32.561Z,98242.88
2022-09-01T18:29:34.244Z,98251.28
2022-09-01T18:35:02.652Z,98255.50
2022-09-01T18:40:28.750Z,98260.06
2022-09-01T18:46:09.023Z,98255.94
2022-09-01T18:51:20.070Z,98264.34
2022-09-01T18:56:52.745Z,98273.63
2022-09-01T19:02:03.277Z,98267.34
2022-09-01T19:07:39.786Z,98264.91
2022-09-01T19:13:03.470Z,98264.47
2022-09-01T19:18:39.109Z,98262.66
2022-09-01T19:23:47.377Z,98257.69
2022-09-01T19:29:06.673Z,98258.94
2022-09-01T19:34:17.075Z,98259.63
2022-09-01T19:39:25.993Z,98261.59
2022-09-01T19:44:44.549Z,98258.06
2022-09-01T19:50:05.765Z,98265.31
2022-09-01T19:55:17.431Z,98267.06
2022-09-01T20:00:26.706Z,98269.03
2022-09-01T20:05:32.244Z,98262.91
2022-09-01T20:10:56.506Z,98265.84
2022-09-01T20:16:41.721Z,98262.25
2022-09-01T20:21:47.358Z,98253.88
2022-09-01T20:27:01.710Z,98261.63
2022-09-01T20:32:05.034Z,98254.81
2022-09-01T20:37:22.073Z,98259.13
2022-09-01T20:42:37.164Z,98256.94
2022-09-01T20:47:39.121Z,98260.38
2022-09-01T20:53:02.948Z,98259.59
2022-09-01T20:58:15.814Z,98264.50
2022-09-01T21:03:45.523Z,98255.94
2022-09-01T21:09:09.906Z,98254.63
2022-09-01T21:14:48.467Z,98259.53
2022-09-01T21:19:56.881Z,98251.09
2022-09-01T21:24:58.517Z,98252.69
2022-09-01T21:30:10.651Z,98246.22
2022-09-01T21:35:15.462Z,98251.41
2022-09-01T21:40:21.717Z,98248.31
2022-09-01T21:45:23.568Z,98243.94
2022-09-01T21:50:25.934Z,98240.22
2022-09-01T21:55:28.872Z,98241.69
2022-09-01T22:00:34.102Z,98247.53
2022-09-01T22:05:41.814Z,98249.13
2022-09-01T22:10:47.112Z,98246.50
2022-09-01T22:15:51.885Z,98246.34
2022-09-01T22:21:08.042Z,98242.44
2022-09-01T22:26:15.424Z,98239.50
2022-09-01T22:31:19.886Z,98238.88
2022-09-01T22:36:25.715Z,98232.84
2022-09-01T22:41:30.797Z,98233.16
2022-09-01T22:46:35.368Z,98233.63
2022-09-01T22:51:41.328Z,98236.22
2022-09-01T22:56:43.290Z,98230.03
2022-09-01T23:01:47.595Z,98229.53
2022-09-01T23:06:52.238Z,98232.94
2022-09-01T23:11:53.866Z,98228.34
2022-09-01T23:16:55.619Z,98226.56
2022-09-01T23:21:57.282Z,98222.22
2022-09-01T23:26:58.909Z,98226.56
2022-09-01T23:32:00.542Z,98223.63
2022-09-01T23:37:02.277Z,98221.84
2022-09-01T23:42:04.137Z,98221.50
2022-09-01T23:47:05.933Z,98217.75
2022-09-01T23:52:07.986Z,98217.75
2022-09-01T23:57:10.509Z,98209.97
